Time;durP1;ratioP1;P1;durP2;ratioP2;P2;SDS_P1;SDS_P2;PMS_P1;PMS_P2;Temp;Humidity;BMP_temperature;BMP_pressure;BME280_temperature;BME280_humidity;BME280_pressure;Samples;Min_cycle;Max_cycle;Signal;HPM_P1;HPM_P2
2022/05/08 00:01:03;;;;;;;16.40;13.43;;;17.00;64.80;;;;;;5073363;28;20686;-51
2022/05/08 00:03:32;;;;;;;17.33;12.95;;;17.00;64.80;;;;;;5072839;28;20115;-51
2022/05/08 00:06:00;;;;;;;14.57;13.07;;;16.90;64.60;;;;;;5072634;28;20086;-52
2022/05/08 00:08:31;;;;;;;20.38;13.60;;;16.90;64.70;;;;;;5068658;28;20103;-51
2022/05/08 00:10:58;;;;;;;14.48;12.95;;;16.90;64.90;;;;;;5072841;28;20442;-47
2022/05/08 00:13:30;;;;;;;17.10;13.93;;;16.80;64.70;;;;;;5073143;28;20068;-50
2022/05/08 00:15:58;;;;;;;15.85;12.55;;;16.80;65.00;;;;;;5070929;28;20092;-50
2022/05/08 00:18:29;;;;;;;14.93;12.32;;;16.70;64.40;;;;;;5071648;28;20055;-49
2022/05/08 00:21:01;;;;;;;13.10;11.70;;;16.70;64.50;;;;;;5071753;28;20040;-47
2022/05/08 00:23:27;;;;;;;14.05;11.60;;;16.70;64.20;;;;;;5071059;28;20052;-50
2022/05/08 00:25:57;;;;;;;13.65;11.90;;;16.60;64.00;;;;;;5071086;28;20040;-47
2022/05/08 00:28:38;;;;;;;15.65;13.07;;;16.60;64.30;;;;;;5072198;28;20068;-52
2022/05/08 00:31:09;;;;;;;15.65;12.55;;;16.50;64.90;;;;;;5072370;28;20036;-47
2022/05/08 00:33:37;;;;;;;14.63;11.55;;;16.50;65.40;;;;;;5070999;28;20036;-47
2022/05/08 00:36:05;;;;;;;16.65;11.95;;;16.40;65.10;;;;;;5072665;28;20493;-47
2022/05/08 00:38:31;;;;;;;12.63;11.07;;;16.40;65.30;;;;;;5071999;28;20124;-50
2022/05/08 00:41:05;;;;;;;14.90;10.77;;;16.40;65.50;;;;;;5053338;28;20033;-51
2022/05/08 00:43:35;;;;;;;13.95;11.45;;;16.30;66.10;;;;;;5072147;28;20068;-51
2022/05/08 00:46:06;;;;;;;13.45;10.15;;;16.30;65.60;;;;;;5071823;28;20102;-47
2022/05/08 00:48:34;;;;;;;12.30;11.00;;;16.30;65.90;;;;;;5071455;28;20051;-50
2022/05/08 00:51:06;;;;;;;10.63;9.40;;;16.30;65.60;;;;;;5072863;28;20352;-49
2022/05/08 00:53:43;;;;;;;10.57;8.93;;;16.20;65.70;;;;;;5071893;28;20047;-47
2022/05/08 00:56:14;;;;;;;11.68;8.50;;;16.30;66.30;;;;;;5071275;28;20141;-48
2022/05/08 00:58:48;;;;;;;10.90;7.95;;;16.30;66.10;;;;;;5067856;28;20082;-52
2022/05/08 01:01:17;;;;;;;10.68;8.60;;;16.20;66.20;;;;;;5070844;28;20040;-50
2022/05/08 01:03:45;;;;;;;9.80;8.25;;;16.30;66.20;;;;;;5071669;28;20113;-48
2022/05/08 01:06:16;;;;;;;9.65;8.15;;;16.30;66.20;;;;;;5055225;28;20049;-49
2022/05/08 01:08:55;;;;;;;9.13;7.53;;;16.30;66.10;;;;;;5052148;28;20068;-50
2022/05/08 01:11:27;;;;;;;8.88;7.22;;;16.30;66.10;;;;;;5070998;28;20374;-51
2022/05/08 01:13:54;;;;;;;8.02;5.50;;;16.30;65.30;;;;;;5071847;28;20044;-47
2022/05/08 01:16:25;;;;;;;9.80;6.13;;;16.40;64.70;;;;;;5069488;28;20048;-50
2022/05/08 01:18:52;;;;;;;5.18;4.13;;;16.40;64.50;;;;;;5071103;28;20041;-47
2022/05/08 01:21:37;;;;;;;5.85;4.28;;;16.40;64.00;;;;;;5071749;28;20491;-50
2022/05/08 01:24:04;;;;;;;5.57;3.97;;;16.50;63.50;;;;;;5069997;28;20110;-47
2022/05/08 01:26:31;;;;;;;4.53;3.88;;;16.50;63.20;;;;;;5066548;28;20078;-51
2022/05/08 01:29:02;;;;;;;3.97;3.53;;;16.50;63.70;;;;;;5069940;28;20111;-49
2022/05/08 01:31:33;;;;;;;6.70;5.22;;;16.50;63.00;;;;;;5069307;28;20037;-50
2022/05/08 01:34:00;;;;;;;9.20;6.30;;;16.50;63.40;;;;;;5063783;28;20039;-52
2022/05/08 01:36:27;;;;;;;6.63;5.55;;;16.60;63.40;;;;;;5069147;28;20071;-51
2022/05/08 01:38:56;;;;;;;6.75;5.10;;;16.60;63.50;;;;;;5069803;28;20040;-45
2022/05/08 01:41:23;;;;;;;6.25;5.55;;;16.50;63.60;;;;;;5052188;28;20048;-49
2022/05/08 01:43:52;;;;;;;7.28;5.43;;;16.50;63.60;;;;;;5068924;28;20044;-52
2022/05/08 01:46:23;;;;;;;6.95;5.38;;;16.50;63.60;;;;;;5065483;23;20088;-50
2022/05/08 01:48:52;;;;;;;5.85;5.25;;;16.40;63.60;;;;;;5052588;28;20045;-46
2022/05/08 01:51:23;;;;;;;8.05;5.80;;;16.40;63.60;;;;;;5045220;28;20040;-46
2022/05/08 01:53:52;;;;;;;9.70;5.93;;;16.30;63.70;;;;;;5048203;28;20396;-46
2022/05/08 01:56:23;;;;;;;6.28;5.45;;;16.30;64.00;;;;;;5061585;28;20127;-45
2022/05/08 01:58:53;;;;;;;6.65;4.65;;;16.20;64.00;;;;;;5069397;28;20052;-47
2022/05/08 02:01:21;;;;;;;5.40;4.90;;;16.20;64.00;;;;;;5068026;28;20075;-46
2022/05/08 02:03:48;;;;;;;6.57;5.10;;;16.10;63.80;;;;;;5057542;28;20095;-45
2022/05/08 02:06:20;;;;;;;7.18;5.25;;;16.10;64.00;;;;;;5065968;28;20041;-46
2022/05/08 02:08:57;;;;;;;5.22;4.43;;;16.00;64.30;;;;;;5068861;28;20047;-47
2022/05/08 02:11:41;;;;;;;5.95;4.03;;;16.00;64.20;;;;;;5066810;28;20036;-44
2022/05/08 02:14:10;;;;;;;6.25;4.88;;;15.90;63.70;;;;;;5067637;28;20044;-46
2022/05/08 02:16:39;;;;;;;6.20;4.15;;;15.90;63.60;;;;;;5065263;28;20048;-46
2022/05/08 02:19:06;;;;;;;6.47;4.63;;;15.90;63.70;;;;;;5051587;28;20044;-46
2022/05/08 02:21:35;;;;;;;5.15;4.50;;;15.80;64.10;;;;;;5068200;28;20044;-48
2022/05/08 02:24:05;;;;;;;;;;;15.70;64.40;;;;;;5066810;28;20855;-51
2022/05/08 02:26:38;;;;;;;5.25;4.35;;;15.70;64.30;;;;;;5062964;28;19952;-51
2022/05/08 02:29:05;;;;;;;6.28;5.28;;;15.70;64.20;;;;;;5049306;28;20041;-50
2022/05/08 02:31:36;;;;;;;8.80;4.78;;;15.70;64.40;;;;;;5064491;28;20071;-47
2022/05/08 02:34:05;;;;;;;6.25;5.03;;;15.60;64.70;;;;;;5069054;28;20060;-49
2022/05/08 02:36:37;;;;;;;6.72;4.63;;;15.60;64.80;;;;;;5059433;28;20454;-50
2022/05/08 02:39:09;;;;;;;8.05;4.97;;;15.50;64.80;;;;;;5078303;28;20046;-50
2022/05/08 02:41:41;;;;;;;7.20;4.80;;;15.50;65.00;;;;;;5064383;28;20045;-50
2022/05/08 02:44:14;;;;;;;7.72;5.07;;;15.50;65.20;;;;;;5052385;28;20123;-49
2022/05/08 02:46:42;;;;;;;7.75;5.10;;;15.50;65.20;;;;;;5052566;28;20032;-51
2022/05/08 02:49:13;;;;;;;8.05;5.40;;;15.50;65.00;;;;;;5045453;28;20048;-50
2022/05/08 02:51:49;;;;;;;6.30;5.10;;;15.60;65.20;;;;;;5075543;28;20090;-49
2022/05/08 02:54:17;;;;;;;7.20;5.15;;;15.60;65.00;;;;;;5061719;28;20095;-51
2022/05/08 02:59:30;;;;;;;11.95;5.85;;;15.60;64.80;;;;;;5068338;28;20475;-49
2022/05/08 03:01:57;;;;;;;8.15;5.75;;;15.70;64.70;;;;;;5072120;28;20037;-50
2022/05/08 03:04:24;;;;;;;7.18;5.65;;;15.70;64.60;;;;;;5059393;28;20063;-46
2022/05/08 03:06:51;;;;;;;7.63;5.10;;;15.70;64.60;;;;;;5048198;28;20409;-47
2022/05/08 03:09:17;;;;;;;7.45;5.15;;;15.70;64.30;;;;;;5058886;28;20511;-50
2022/05/08 03:11:44;;;;;;;6.45;5.72;;;15.70;64.30;;;;;;5072076;28;20114;-46
2022/05/08 03:14:11;;;;;;;8.73;5.75;;;15.70;64.20;;;;;;5070361;28;20446;-49
2022/05/08 03:16:41;;;;;;;6.60;5.15;;;15.70;64.10;;;;;;5074480;28;20586;-50
2022/05/08 03:19:08;;;;;;;10.27;6.88;;;15.60;64.10;;;;;;5056183;28;20033;-48
2022/05/08 03:21:35;;;;;;;8.27;5.68;;;15.60;64.20;;;;;;5052095;28;20095;-46
2022/05/08 03:24:01;;;;;;;8.68;5.95;;;15.60;64.20;;;;;;5066332;28;20033;-49
2022/05/08 03:26:31;;;;;;;9.85;6.50;;;15.50;64.20;;;;;;5072504;28;20040;-47
2022/05/08 03:29:00;;;;;;;8.73;6.45;;;15.50;64.40;;;;;;5072205;28;20099;-51
2022/05/08 03:31:29;;;;;;;7.78;6.15;;;15.50;64.50;;;;;;5075068;28;20060;-49
2022/05/08 03:33:55;;;;;;;13.15;8.00;;;15.50;64.70;;;;;;5068526;28;20043;-47
2022/05/08 03:36:25;;;;;;;8.32;7.30;;;15.50;64.70;;;;;;5069752;28;20047;-50
2022/05/08 03:38:52;;;;;;;11.93;8.07;;;15.50;64.80;;;;;;5072365;28;20032;-48
2022/05/08 03:41:19;;;;;;;8.30;6.93;;;15.50;64.80;;;;;;5074476;28;20095;-47
2022/05/08 03:43:50;;;;;;;11.63;8.60;;;15.50;64.80;;;;;;5052906;28;20120;-51
2022/05/08 03:46:20;;;;;;;10.10;7.28;;;15.50;64.80;;;;;;5036947;28;20104;-46
2022/05/08 03:48:47;;;;;;;12.73;7.57;;;15.60;65.00;;;;;;5072523;28;20055;-47
2022/05/08 03:51:13;;;;;;;9.43;8.18;;;15.60;64.90;;;;;;5063995;28;20041;-50
2022/05/08 03:53:49;;;;;;;11.85;7.93;;;15.60;64.90;;;;;;5053998;28;20048;-51
2022/05/08 03:56:16;;;;;;;10.70;8.82;;;15.60;64.80;;;;;;5055275;28;20541;-49
2022/05/08 03:58:44;;;;;;;10.05;8.45;;;15.60;64.70;;;;;;5072454;28;20059;-50
2022/05/08 04:01:11;;;;;;;10.02;8.77;;;15.60;64.60;;;;;;5072819;28;20117;-47
2022/05/08 04:03:38;;;;;;;12.10;9.27;;;15.60;64.50;;;;;;5066837;28;20037;-48
2022/05/08 04:06:05;;;;;;;13.35;9.35;;;15.60;64.40;;;;;;5047214;28;20040;-47
2022/05/08 04:08:37;;;;;;;10.13;9.00;;;15.60;64.30;;;;;;5059269;28;20064;-47
2022/05/08 04:11:03;;;;;;;12.73;8.65;;;15.50;64.30;;;;;;5051882;28;20048;-45
2022/05/08 04:13:30;;;;;;;12.35;9.57;;;15.50;64.20;;;;;;5061873;28;20041;-50
2022/05/08 04:16:18;;;;;;;11.43;8.80;;;15.50;64.30;;;;;;5070759;28;20051;-49
2022/05/08 04:18:47;;;;;;;11.25;9.50;;;15.40;64.30;;;;;;5071537;28;20886;-45
2022/05/08 04:21:15;;;;;;;13.30;9.30;;;15.40;64.30;;;;;;5069117;28;20498;-47
2022/05/08 04:26:30;;;;;;;12.35;9.85;;;15.40;64.40;;;;;;5069447;28;20109;-51
2022/05/08 04:28:57;;;;;;;13.65;9.95;;;15.30;64.30;;;;;;5053838;28;20052;-51
2022/05/08 04:31:33;;;;;;;13.52;11.05;;;15.40;64.50;;;;;;5069776;28;20068;-50
2022/05/08 04:34:01;;;;;;;14.52;11.02;;;15.40;64.50;;;;;;5071637;28;20041;-47
2022/05/08 04:36:29;;;;;;;14.63;11.18;;;15.30;64.50;;;;;;5063086;28;20047;-47
2022/05/08 04:39:00;;;;;;;12.40;10.48;;;15.30;64.40;;;;;;5069375;28;20444;-50
2022/05/08 04:41:28;;;;;;;13.23;9.95;;;15.30;64.30;;;;;;5069913;28;20068;-51
2022/05/08 04:43:59;;;;;;;13.32;11.20;;;15.30;64.20;;;;;;5069915;28;20098;-47
2022/05/08 04:46:28;;;;;;;;;;;15.40;64.20;;;;;;5069058;28;20684;-49
2022/05/08 04:48:59;;;;;;;12.52;10.48;;;15.30;63.90;;;;;;5068236;28;19924;-50
2022/05/08 04:51:30;;;;;;;14.65;11.48;;;15.20;63.60;;;;;;5069806;28;20036;-48
2022/05/08 04:53:56;;;;;;;12.80;10.85;;;15.20;63.80;;;;;;5069321;28;20138;-51
2022/05/08 04:56:23;;;;;;;12.77;10.60;;;15.20;64.00;;;;;;5068532;28;20097;-47
2022/05/08 04:58:52;;;;;;;16.08;11.15;;;15.10;64.20;;;;;;5066666;28;20037;-49
2022/05/08 05:01:24;;;;;;;12.95;11.23;;;15.10;64.30;;;;;;5066921;28;20044;-47
2022/05/08 05:03:55;;;;;;;14.93;11.48;;;15.10;64.30;;;;;;5069223;28;20403;-48
2022/05/08 05:06:28;;;;;;;13.98;10.52;;;15.00;64.40;;;;;;5066864;28;20044;-50
2022/05/08 05:08:59;;;;;;;12.25;10.85;;;15.10;64.50;;;;;;5071241;28;20124;-47
2022/05/08 05:11:26;;;;;;;15.77;11.90;;;15.00;64.50;;;;;;5068087;28;20052;-48
2022/05/08 05:13:53;;;;;;;14.13;11.48;;;15.00;64.60;;;;;;5039597;28;20037;-48
2022/05/08 05:16:20;;;;;;;14.80;10.95;;;15.00;64.70;;;;;;5048773;28;20063;-47
2022/05/08 05:18:49;;;;;;;16.30;10.82;;;15.00;64.70;;;;;;5070914;28;20044;-48
2022/05/08 05:21:16;;;;;;;15.60;11.90;;;15.00;64.70;;;;;;5069666;28;20113;-49
2022/05/08 05:23:48;;;;;;;12.70;10.60;;;15.00;64.60;;;;;;5065520;28;20496;-50
2022/05/08 05:26:16;;;;;;;16.02;11.65;;;15.10;64.70;;;;;;5029582;28;20049;-49
2022/05/08 05:28:48;;;;;;;14.20;10.35;;;15.10;64.70;;;;;;5036193;28;20057;-46
2022/05/08 05:31:15;;;;;;;13.57;10.75;;;15.10;64.70;;;;;;5070286;28;20048;-46
2022/05/08 05:33:42;;;;;;;15.90;11.43;;;15.10;64.70;;;;;;5069070;28;20032;-47
2022/05/08 05:36:16;;;;;;;13.05;10.43;;;15.10;64.70;;;;;;5068889;28;20066;-48
2022/05/08 05:38:45;;;;;;;14.80;10.98;;;15.20;64.90;;;;;;5069724;28;20044;-45
2022/05/08 05:41:14;;;;;;;15.45;10.65;;;15.20;64.80;;;;;;5070725;28;20102;-47
2022/05/08 05:43:44;;;;;;;15.75;11.23;;;15.30;64.80;;;;;;5057574;28;20049;-46
2022/05/08 05:49:07;;;;;;;15.55;11.35;;;15.40;64.90;;;;;;5053789;28;20132;-55
2022/05/08 05:51:36;;;;;;;13.88;10.45;;;15.40;64.80;;;;;;5067553;28;20419;-55
2022/05/08 05:54:06;;;;;;;14.55;11.27;;;15.50;64.90;;;;;;5055231;28;20049;-50
2022/05/08 05:56:35;;;;;;;14.52;11.18;;;15.60;64.80;;;;;;5082443;28;20121;-54
2022/05/08 05:59:02;;;;;;;15.13;10.90;;;15.70;64.40;;;;;;5067006;28;20068;-55
2022/05/08 06:01:45;;;;;;;12.48;10.27;;;15.80;63.70;;;;;;5067612;28;20044;-54
2022/05/08 06:04:19;;;;;;;13.00;10.55;;;15.80;63.90;;;;;;5061119;28;20055;-51
2022/05/08 06:06:50;;;;;;;13.15;9.32;;;15.90;63.20;;;;;;5069815;28;20048;-53
2022/05/08 06:09:16;;;;;;;11.77;9.27;;;16.00;63.10;;;;;;5047244;28;20041;-51
2022/05/08 06:11:49;;;;;;;17.27;8.93;;;16.10;62.90;;;;;;5066793;28;20044;-53
2022/05/08 06:14:15;;;;;;;12.82;9.52;;;16.10;62.40;;;;;;5042177;28;20052;-54
2022/05/08 06:16:45;;;;;;;11.45;8.88;;;16.20;62.60;;;;;;5034534;28;20159;-53
2022/05/08 06:19:11;;;;;;;10.27;8.63;;;16.30;62.30;;;;;;5049575;28;20147;-55
2022/05/08 06:21:38;;;;;;;11.27;9.27;;;16.30;61.90;;;;;;5032241;28;20041;-52
2022/05/08 06:24:05;;;;;;;12.25;8.98;;;16.30;61.60;;;;;;5052582;28;20061;-55
2022/05/08 06:26:32;;;;;;;10.25;9.15;;;16.40;61.50;;;;;;5045291;28;20040;-54
2022/05/08 06:28:59;;;;;;;13.75;9.27;;;16.40;61.50;;;;;;5055305;28;20069;-55
2022/05/08 06:31:27;;;;;;;11.35;8.57;;;16.40;61.10;;;;;;5056831;28;20672;-55
2022/05/08 06:33:54;;;;;;;14.10;10.02;;;16.40;60.80;;;;;;5051436;28;20064;-54
2022/05/08 06:36:22;;;;;;;11.75;8.63;;;16.60;61.00;;;;;;5049340;28;20697;-55
2022/05/08 06:38:48;;;;;;;13.40;9.27;;;16.50;61.10;;;;;;5069845;28;20037;-55
2022/05/08 06:41:15;;;;;;;12.38;8.82;;;16.50;61.10;;;;;;5058326;28;20057;-51
2022/05/08 06:43:42;;;;;;;9.73;8.32;;;16.60;60.50;;;;;;5045678;28;20520;-55
2022/05/08 06:46:09;;;;;;;10.90;9.02;;;16.60;60.60;;;;;;5050965;28;20071;-54
2022/05/08 06:48:36;;;;;;;15.52;9.30;;;16.60;60.30;;;;;;5058365;28;20044;-55
2022/05/08 06:51:04;;;;;;;12.75;8.25;;;16.70;60.30;;;;;;5068793;28;20095;-55
2022/05/08 06:53:31;;;;;;;14.10;8.50;;;16.70;60.00;;;;;;5046488;28;20052;-55
2022/05/08 06:56:00;;;;;;;11.55;7.80;;;16.70;59.40;;;;;;5061480;28;20559;-54
2022/05/08 06:58:27;;;;;;;11.32;8.07;;;16.70;59.30;;;;;;5050158;28;20110;-55
2022/05/08 07:03:42;;;;;;;13.52;7.82;;;16.70;59.00;;;;;;5054304;28;20784;-55
2022/05/08 07:06:08;;;;;;;11.48;7.20;;;16.70;58.80;;;;;;5037150;28;20099;-51
2022/05/08 07:08:35;;;;;;;11.18;7.63;;;16.70;58.90;;;;;;5054594;28;20051;-55
2022/05/08 07:11:02;;;;;;;9.25;6.60;;;16.70;58.90;;;;;;5056987;28;20040;-52
2022/05/08 07:13:32;;;;;;;12.27;7.15;;;16.70;59.00;;;;;;5056578;28;20040;-54
2022/05/08 07:15:59;;;;;;;9.35;6.70;;;16.70;58.60;;;;;;5069037;28;20098;-53
2022/05/08 07:18:27;;;;;;;12.38;7.05;;;16.80;58.60;;;;;;5046156;28;20044;-54
2022/05/08 07:20:54;;;;;;;10.63;7.20;;;16.70;58.30;;;;;;5065244;28;20044;-51
2022/05/08 07:23:21;;;;;;;14.00;6.72;;;16.80;58.10;;;;;;5046718;28;20072;-54
2022/05/08 07:25:49;;;;;;;9.77;6.15;;;16.80;58.20;;;;;;5053185;28;20617;-55
2022/05/08 07:28:18;;;;;;;12.95;7.20;;;16.80;58.10;;;;;;5046373;28;20075;-54
2022/05/08 07:30:45;;;;;;;13.50;6.18;;;16.90;58.00;;;;;;5062027;28;20567;-52
2022/05/08 07:33:16;;;;;;;15.93;7.18;;;16.90;58.00;;;;;;5054270;28;20068;-48
2022/05/08 07:38:28;;;;;;;10.63;6.07;;;17.00;57.50;;;;;;5043286;28;20033;-48
2022/05/08 07:41:00;;;;;;;16.85;7.20;;;17.00;57.80;;;;;;5081832;28;20064;-48
2022/05/08 07:43:28;;;;;;;12.18;5.15;;;17.10;57.90;;;;;;5054832;28;20403;-58
2022/05/08 07:45:54;;;;;;;9.27;5.75;;;17.10;57.60;;;;;;5055034;28;20040;-58
2022/05/08 07:48:21;;;;;;;12.50;5.95;;;17.20;57.50;;;;;;5074898;23;20119;-57
2022/05/08 07:50:49;;;;;;;13.27;6.03;;;17.20;57.50;;;;;;5048280;28;20504;-54
2022/05/08 07:53:20;;;;;;;13.50;6.03;;;17.30;57.00;;;;;;5031149;28;20037;-57
2022/05/08 07:55:51;;;;;;;10.43;6.55;;;17.30;56.60;;;;;;5032841;28;20073;-59
2022/05/08 07:58:22;;;;;;;12.93;6.18;;;17.30;56.40;;;;;;5004273;28;20049;-53
2022/05/08 08:00:53;;;;;;;14.90;6.10;;;17.30;56.40;;;;;;5022112;28;20037;-62
2022/05/08 08:03:21;;;;;;;11.18;5.25;;;17.40;56.00;;;;;;5009279;28;20157;-54
2022/05/08 08:05:48;;;;;;;14.93;5.93;;;17.40;55.80;;;;;;5023203;28;20849;-56
2022/05/08 08:08:34;;;;;;;21.92;7.22;;;17.40;55.60;;;;;;5019576;28;20041;-55
2022/05/08 08:11:03;;;;;;;13.73;5.38;;;17.40;55.80;;;;;;5036275;28;20053;-62
2022/05/08 08:13:31;;;;;;;9.75;5.47;;;17.30;55.70;;;;;;5016719;28;20041;-58
2022/05/08 08:16:01;;;;;;;13.38;6.35;;;17.30;55.40;;;;;;5025775;28;20128;-62
2022/05/08 08:18:28;;;;;;;11.73;5.72;;;17.30;55.50;;;;;;5017729;28;20116;-56
2022/05/08 08:20:56;;;;;;;11.40;5.32;;;17.30;55.60;;;;;;5043633;28;20037;-57
2022/05/08 08:23:24;;;;;;;11.85;6.07;;;17.30;55.50;;;;;;5019684;28;20420;-53
2022/05/08 08:25:51;;;;;;;13.70;4.90;;;17.30;55.40;;;;;;5027801;28;20033;-56
2022/05/08 08:28:18;;;;;;;13.07;5.35;;;17.30;55.50;;;;;;5011749;28;20507;-62
2022/05/08 08:30:45;;;;;;;7.57;4.57;;;17.30;55.80;;;;;;5031480;28;20045;-56
2022/05/08 08:33:11;;;;;;;11.48;4.35;;;17.30;55.60;;;;;;5015843;28;20076;-55
2022/05/08 08:35:40;;;;;;;10.32;4.57;;;17.40;55.70;;;;;;5026156;28;20037;-58
2022/05/08 08:38:08;;;;;;;14.88;4.70;;;17.40;55.50;;;;;;5015444;28;20043;-56
2022/05/08 08:40:40;;;;;;;9.45;4.00;;;17.50;55.30;;;;;;5031535;28;20041;-57
2022/05/08 08:43:11;;;;;;;13.13;5.45;;;17.60;55.20;;;;;;5018118;28;20045;-56
2022/05/08 08:48:29;;;;;;;8.57;4.07;;;17.70;54.20;;;;;;5016956;28;20106;-54
2022/05/08 08:50:57;;;;;;;11.25;5.00;;;17.80;54.50;;;;;;5036558;28;20045;-59
2022/05/08 08:53:26;;;;;;;11.65;5.03;;;17.90;54.10;;;;;;5014209;28;20038;-52
2022/05/08 08:55:53;;;;;;;9.07;4.50;;;17.90;54.30;;;;;;5023462;28;20040;-58
2022/05/08 08:58:23;;;;;;;13.05;4.43;;;18.00;54.10;;;;;;5016686;28;20049;-54
2022/05/08 09:00:50;;;;;;;8.40;3.63;;;18.00;53.50;;;;;;5015510;28;20128;-55
2022/05/08 09:03:25;;;;;;;7.95;4.18;;;18.10;53.20;;;;;;5016853;28;20049;-52
2022/05/08 09:06:02;;;;;;;13.25;4.80;;;18.10;53.00;;;;;;5023567;28;20048;-54
2022/05/08 09:08:32;;;;;;;7.88;3.50;;;18.20;52.10;;;;;;5015162;28;20513;-54
2022/05/08 09:10:59;;;;;;;8.05;3.00;;;18.20;52.50;;;;;;5029728;28;20049;-58
2022/05/08 09:13:30;;;;;;;13.18;3.78;;;18.20;52.60;;;;;;5014744;28;20056;-57
2022/05/08 09:16:05;;;;;;;11.18;3.28;;;18.20;52.20;;;;;;5020512;28;20046;-58
2022/05/08 09:18:48;;;;;;;8.93;4.25;;;18.30;52.20;;;;;;5018606;28;20095;-54
2022/05/08 09:24:13;;;;;;;8.95;3.10;;;18.40;51.80;;;;;;5028047;28;20065;-53
2022/05/08 09:26:40;;;;;;;8.38;3.85;;;18.50;52.60;;;;;;5008372;28;20068;-59
2022/05/08 09:29:21;;;;;;;11.77;3.80;;;18.50;52.40;;;;;;5027307;28;20509;-55
2022/05/08 09:31:48;;;;;;;7.40;2.92;;;18.50;51.90;;;;;;5016519;28;20051;-60
2022/05/08 09:34:15;;;;;;;9.35;3.20;;;18.60;52.00;;;;;;5024999;28;20096;-56
2022/05/08 09:36:42;;;;;;;6.82;2.88;;;18.70;52.20;;;;;;5011496;28;20128;-56
2022/05/08 09:39:12;;;;;;;7.93;3.42;;;18.70;51.70;;;;;;5029199;28;20073;-56
2022/05/08 09:41:39;;;;;;;9.48;3.75;;;18.80;51.70;;;;;;5009848;28;20172;-58
2022/05/08 09:44:13;;;;;;;9.65;3.28;;;18.80;51.10;;;;;;5028065;28;20048;-54
2022/05/08 09:46:45;;;;;;;8.25;4.10;;;18.80;51.20;;;;;;5007134;28;20189;-54
2022/05/08 09:49:13;;;;;;;4.47;3.20;;;18.90;51.00;;;;;;5023409;28;20041;-58
2022/05/08 09:51:42;;;;;;;11.32;3.30;;;18.90;51.40;;;;;;5015221;28;20534;-57
2022/05/08 09:54:09;;;;;;;10.38;4.18;;;19.00;50.90;;;;;;5025545;28;20049;-58
2022/05/08 09:56:36;;;;;;;9.60;2.55;;;19.10;49.80;;;;;;5007588;28;20112;-55
2022/05/08 09:59:07;;;;;;;9.93;3.55;;;19.10;50.30;;;;;;5026132;28;20125;-57
2022/05/08 10:01:34;;;;;;;11.30;3.65;;;19.10;49.50;;;;;;5015974;28;20112;-57
2022/05/08 10:04:01;;;;;;;8.15;3.15;;;19.10;50.30;;;;;;5022633;28;20045;-58
2022/05/08 10:06:30;;;;;;;8.27;3.40;;;19.10;50.00;;;;;;5012299;28;20769;-57
2022/05/08 10:14:33;;;;;;;6.82;3.40;;;19.10;48.50;;;;;;5026766;28;20702;-56
2022/05/08 10:17:00;;;;;;;8.65;3.53;;;19.10;48.30;;;;;;5007371;28;20041;-52
2022/05/08 10:19:26;;;;;;;6.20;2.53;;;19.10;48.30;;;;;;5028523;28;20033;-54
2022/05/08 10:21:56;;;;;;;6.93;2.53;;;19.10;48.00;;;;;;5012876;28;20077;-57
2022/05/08 10:24:34;;;;;;;7.60;2.25;;;19.00;48.30;;;;;;5023773;28;20042;-56
2022/05/08 10:27:19;;;;;;;14.60;3.50;;;19.00;47.30;;;;;;5005630;28;20048;-56
2022/05/08 10:29:52;;;;;;;9.05;2.90;;;19.00;48.10;;;;;;5020565;28;20053;-57
2022/05/08 10:32:28;;;;;;;8.00;3.47;;;19.00;47.70;;;;;;5016960;28;20077;-55
2022/05/08 10:35:07;;;;;;;6.35;2.47;;;19.00;47.80;;;;;;5022594;28;20053;-58
2022/05/08 10:37:34;;;;;;;5.22;2.20;;;19.00;47.40;;;;;;5010278;28;20595;-56
2022/05/08 10:40:02;;;;;;;7.70;2.13;;;19.00;47.90;;;;;;5022209;28;20674;-54
2022/05/08 10:42:33;;;;;;;8.90;2.80;;;18.90;48.10;;;;;;5010815;28;20129;-57
2022/05/08 10:45:01;;;;;;;6.47;2.55;;;19.00;48.10;;;;;;5025075;28;20584;-51
2022/05/08 10:47:33;;;;;;;2.95;2.10;;;19.00;47.80;;;;;;5014479;28;20117;-57
2022/05/08 10:50:05;;;;;;;6.65;2.33;;;19.00;47.40;;;;;;5023583;28;20034;-55
2022/05/08 10:52:37;;;;;;;9.20;2.10;;;19.00;47.40;;;;;;5004330;28;20745;-59
2022/05/08 10:55:08;;;;;;;2.47;1.50;;;19.00;46.90;;;;;;5020813;28;20056;-55
2022/05/08 10:57:36;;;;;;;7.30;1.92;;;19.10;46.80;;;;;;5011421;28;20586;-54
2022/05/08 11:00:09;;;;;;;5.70;1.70;;;19.10;46.10;;;;;;5024865;28;20401;-55
2022/05/08 11:02:42;;;;;;;3.33;1.70;;;19.10;46.50;;;;;;5010985;28;20104;-54
2022/05/08 11:05:11;;;;;;;5.60;2.38;;;19.20;46.70;;;;;;5024583;28;20099;-58
2022/05/08 11:07:46;;;;;;;7.68;2.00;;;19.20;46.80;;;;;;5011155;28;20037;-52
2022/05/08 11:10:18;;;;;;;5.43;1.95;;;19.20;45.70;;;;;;5027899;28;20103;-54
2022/05/08 11:12:59;;;;;;;4.50;2.17;;;19.30;45.10;;;;;;5014270;28;20452;-60
2022/05/08 11:15:33;;;;;;;8.32;2.20;;;19.40;45.20;;;;;;5021395;28;21381;-52
2022/05/08 11:18:05;;;;;;;6.03;2.05;;;19.40;44.90;;;;;;4989322;28;20052;-54
2022/05/08 11:20:33;;;;;;;7.55;1.77;;;19.40;45.20;;;;;;5031294;28;20041;-54
2022/05/08 11:23:00;;;;;;;5.47;2.00;;;19.40;45.50;;;;;;5018966;28;20044;-54
2022/05/08 11:25:26;;;;;;;6.00;1.75;;;19.50;45.30;;;;;;5022223;28;20608;-57
2022/05/08 11:27:55;;;;;;;6.82;1.83;;;19.50;45.40;;;;;;5012565;28;20469;-55
2022/05/08 11:30:33;;;;;;;5.90;2.05;;;19.60;45.00;;;;;;5029962;28;20045;-56
2022/05/08 11:36:10;;;;;;;7.18;2.58;;;19.70;45.80;;;;;;5028065;28;20045;-55
2022/05/08 11:38:58;;;;;;;8.00;2.70;;;19.80;44.80;;;;;;5021837;28;20076;-55
2022/05/08 11:41:27;;;;;;;4.32;1.60;;;19.90;45.20;;;;;;5018843;28;20077;-58
2022/05/08 11:43:59;;;;;;;7.28;1.77;;;20.00;45.10;;;;;;5028785;28;20033;-51
2022/05/08 11:46:36;;;;;;;3.83;1.58;;;20.00;44.30;;;;;;5014368;28;20046;-54
2022/05/08 11:49:25;;;;;;;5.45;1.60;;;20.10;43.50;;;;;;5029846;28;20034;-55
2022/05/08 11:51:56;;;;;;;5.15;1.63;;;20.20;44.10;;;;;;5017970;28;20037;-53
2022/05/08 11:54:30;;;;;;;5.38;1.92;;;20.20;44.70;;;;;;5028678;28;20041;-58
2022/05/08 11:57:16;;;;;;;3.72;1.80;;;20.30;44.80;;;;;;5014958;28;20065;-57
2022/05/08 11:59:47;;;;;;;6.32;2.20;;;20.40;43.90;;;;;;5030145;28;20494;-55
2022/05/08 12:02:15;;;;;;;7.88;2.47;;;20.40;44.70;;;;;;5021015;28;20076;-52
2022/05/08 12:04:56;;;;;;;5.30;2.63;;;20.40;44.20;;;;;;5032385;28;20056;-57
2022/05/08 12:07:24;;;;;;;8.10;3.33;;;20.50;43.50;;;;;;5013505;28;20041;-59
2022/05/08 12:09:54;;;;;;;4.70;1.75;;;20.50;43.60;;;;;;5032389;28;20084;-57
2022/05/08 12:12:36;;;;;;;5.47;2.15;;;20.50;43.60;;;;;;5017797;28;20038;-56
2022/05/08 12:15:06;;;;;;;4.50;2.45;;;20.50;43.60;;;;;;5024158;28;20095;-55
2022/05/08 12:17:40;;;;;;;3.30;1.77;;;20.60;45.10;;;;;;5016171;28;20045;-55
2022/05/08 12:20:19;;;;;;;5.82;1.30;;;20.60;44.10;;;;;;5030275;28;20886;-54
2022/05/08 12:23:03;;;;;;;3.08;1.50;;;20.70;43.40;;;;;;5018543;28;20072;-54
2022/05/08 12:25:31;;;;;;;3.72;1.35;;;20.80;42.90;;;;;;5026134;28;20092;-55
2022/05/08 12:27:58;;;;;;;5.40;1.90;;;20.80;43.50;;;;;;5013954;28;20069;-56
2022/05/08 12:30:25;;;;;;;5.25;1.58;;;20.90;43.60;;;;;;5029495;28;20045;-57
2022/05/08 12:32:52;;;;;;;3.95;2.20;;;21.10;43.30;;;;;;5010609;28;20049;-55
2022/05/08 12:35:19;;;;;;;7.90;2.30;;;21.10;43.50;;;;;;5030598;28;20046;-52
2022/05/08 12:37:49;;;;;;;5.28;1.80;;;21.20;43.50;;;;;;5015292;28;20049;-55
2022/05/08 12:40:17;;;;;;;6.47;1.70;;;21.30;42.00;;;;;;5028150;28;20111;-54
2022/05/08 12:42:46;;;;;;;4.07;1.50;;;21.40;41.30;;;;;;4991566;28;20040;-54
2022/05/08 12:45:13;;;;;;;5.07;1.70;;;21.50;41.90;;;;;;5027965;28;20049;-53
2022/05/08 12:47:40;;;;;;;3.97;1.40;;;21.60;42.10;;;;;;5013412;28;20133;-53
2022/05/08 12:50:07;;;;;;;6.35;1.73;;;21.70;41.90;;;;;;5011391;28;20064;-54
2022/05/08 12:52:35;;;;;;;11.60;1.90;;;21.80;42.30;;;;;;5013470;28;20064;-57
2022/05/08 12:55:03;;;;;;;5.30;1.98;;;21.90;42.40;;;;;;5020736;28;20053;-55
2022/05/08 13:00:17;;;;;;;3.22;1.13;;;22.10;41.20;;;;;;5017888;28;20045;-54
2022/05/08 13:02:47;;;;;;;3.33;1.60;;;22.30;41.50;;;;;;5015006;28;20048;-58
2022/05/08 13:05:14;;;;;;;6.93;1.50;;;22.40;41.50;;;;;;5029226;28;20046;-53
2022/05/08 13:07:40;;;;;;;3.05;1.52;;;22.50;40.20;;;;;;5012971;28;20038;-57
2022/05/08 13:10:07;;;;;;;2.55;1.35;;;22.60;40.70;;;;;;5029414;28;20049;-56
2022/05/08 13:12:34;;;;;;;7.97;1.90;;;22.80;40.80;;;;;;5010585;28;20053;-55
2022/05/08 13:15:01;;;;;;;4.18;1.85;;;22.90;40.20;;;;;;5021953;28;20571;-56
2022/05/08 13:17:28;;;;;;;3.65;1.63;;;23.00;39.60;;;;;;5018347;28;20152;-52
2022/05/08 13:19:58;;;;;;;6.95;2.38;;;23.20;39.70;;;;;;5029354;28;20045;-57
2022/05/08 13:22:25;;;;;;;6.50;1.83;;;23.30;39.70;;;;;;5016848;28;20045;-55
2022/05/08 13:24:58;;;;;;;4.55;2.03;;;23.50;40.00;;;;;;5023112;28;20038;-52